Time;durP1;ratioP1;P1;durP2;ratioP2;P2;SDS_P1;SDS_P2;PMS_P1;PMS_P2;Temp;Humidity;BMP_temperature;BMP_pressure;BME280_temperature;BME280_humidity;BME280_pressure;Samples;Min_cycle;Max_cycle;Signal;HPM_P1;HPM_P2
2022/07/30 00:00:57;;;;;;;11.02;8.23;;;;;;;;;;4390401;32;20154;-65
2022/07/30 00:03:26;;;;;;;11.80;7.78;;;;;;;;;;4389875;32;20073;-65
2022/07/30 00:05:53;;;;;;;11.70;7.68;;;;;;;;;;4377082;32;20073;-65
2022/07/30 00:08:21;;;;;;;11.68;7.50;;;;;;;;;;4389861;32;20070;-65
2022/07/30 00:10:48;;;;;;;10.32;7.30;;;;;;;;;;4389600;32;20185;-65
2022/07/30 00:13:14;;;;;;;12.98;7.05;;;;;;;;;;4389791;32;20078;-65
2022/07/30 00:15:41;;;;;;;12.13;7.68;;;;;;;;;;4392900;32;20083;-65
2022/07/30 00:18:08;;;;;;;12.35;7.57;;;;;;;;;;4394705;32;20090;-66
2022/07/30 00:20:34;;;;;;;11.65;7.53;;;;;;;;;;4392704;32;20077;-65
2022/07/30 00:23:05;;;;;;;11.38;7.53;;;;;;;;;;4394481;32;20087;-65
2022/07/30 00:25:31;;;;;;;12.43;7.65;;;;;;;;;;4392652;32;20523;-65
2022/07/30 00:27:58;;;;;;;12.13;7.72;;;;;;;;;;4392943;32;20173;-64
2022/07/30 00:30:25;;;;;;;10.30;7.07;;;;;;;;;;4393202;32;20093;-65
2022/07/30 00:32:51;;;;;;;13.07;7.30;;;;;;;;;;4394103;32;20519;-65
2022/07/30 00:35:18;;;;;;;13.27;7.32;;;;;;;;;;4380022;32;20496;-64
2022/07/30 00:37:45;;;;;;;12.98;7.03;;;;;;;;;;4393694;32;20149;-65
2022/07/30 00:40:11;;;;;;;11.93;7.55;;;;;;;;;;4392328;32;20154;-65
2022/07/30 00:42:40;;;;;;;10.25;7.37;;;;;;;;;;4380274;32;20078;-65
2022/07/30 00:45:08;;;;;;;11.45;7.07;;;;;;;;;;4392719;32;20174;-65
2022/07/30 00:47:35;;;;;;;10.98;7.50;;;;;;;;;;4392451;32;20078;-65
2022/07/30 00:50:03;;;;;;;11.35;7.30;;;;;;;;;;4392295;32;20092;-65
2022/07/30 00:52:33;;;;;;;12.82;7.95;;;;;;;;;;4393427;32;20072;-65
2022/07/30 00:55:00;;;;;;;13.48;7.55;;;;;;;;;;4392654;32;20085;-64
2022/07/30 00:57:27;;;;;;;11.90;8.27;;;;;;;;;;4392944;32;20505;-65
2022/07/30 00:59:54;;;;;;;9.88;6.95;;;;;;;;;;4393818;32;20070;-65
2022/07/30 01:02:21;;;;;;;13.55;7.90;;;;;;;;;;4392279;32;20065;-65
2022/07/30 01:04:48;;;;;;;13.23;7.50;;;;;;;;;;4393630;32;20151;-65
2022/07/30 01:07:15;;;;;;;12.75;7.62;;;;;;;;;;4392071;32;20097;-64
2022/07/30 01:09:41;;;;;;;11.68;7.53;;;;;;;;;;4393697;32;20539;-66
2022/07/30 01:12:09;;;;;;;11.27;7.45;;;;;;;;;;4393552;32;20152;-65
2022/07/30 01:14:37;;;;;;;11.07;7.87;;;;;;;;;;4392421;32;20077;-65
2022/07/30 01:17:04;;;;;;;13.18;7.62;;;;;;;;;;4392346;32;20425;-65
2022/07/30 01:19:47;;;;;;;10.70;8.23;;;;;;;;;;4392001;32;20090;-65
2022/07/30 01:22:27;;;;;;;12.88;7.85;;;;;;;;;;4392538;32;20097;-65
2022/07/30 01:25:27;;;;;;;10.00;7.55;;;;;;;;;;4391950;32;20077;-65
2022/07/30 01:28:02;;;;;;;11.63;8.82;;;;;;;;;;4392473;32;20088;-65
2022/07/30 01:30:32;;;;;;;13.43;8.65;;;;;;;;;;4393431;32;20077;-65
2022/07/30 01:32:59;;;;;;;11.63;7.80;;;;;;;;;;4391905;32;20088;-66
2022/07/30 01:35:27;;;;;;;11.15;7.87;;;;;;;;;;4393417;32;20073;-65
2022/07/30 01:37:55;;;;;;;12.60;8.00;;;;;;;;;;4392296;32;20085;-65
2022/07/30 01:40:23;;;;;;;12.25;8.07;;;;;;;;;;4379375;32;20459;-65
2022/07/30 01:42:53;;;;;;;13.88;8.48;;;;;;;;;;4379250;32;20108;-65
2022/07/30 01:45:26;;;;;;;13.75;8.05;;;;;;;;;;4391484;32;20537;-65
2022/07/30 01:47:59;;;;;;;11.95;8.27;;;;;;;;;;4391942;32;20088;-65
2022/07/30 01:50:26;;;;;;;10.98;7.70;;;;;;;;;;4396432;32;20449;-65
2022/07/30 01:52:53;;;;;;;11.85;7.82;;;;;;;;;;4394739;32;20154;-65
2022/07/30 01:55:29;;;;;;;12.10;8.10;;;;;;;;;;4391969;32;20239;-65
2022/07/30 01:57:57;;;;;;;10.02;7.47;;;;;;;;;;4391813;32;20152;-65
2022/07/30 02:00:24;;;;;;;13.80;8.05;;;;;;;;;;4392188;32;20089;-65
2022/07/30 02:02:51;;;;;;;13.05;8.57;;;;;;;;;;4391549;32;20090;-66
2022/07/30 02:05:18;;;;;;;13.18;8.43;;;;;;;;;;4391288;32;20515;-64
2022/07/30 02:08:35;;;;;;;12.35;8.25;;;;;;;;;;4391406;32;20525;-65
2022/07/30 02:11:09;;;;;;;12.18;8.30;;;;;;;;;;4359754;32;20141;-64
2022/07/30 02:13:47;;;;;;;11.48;7.75;;;;;;;;;;4391334;32;20081;-65
2022/07/30 02:16:26;;;;;;;13.65;8.57;;;;;;;;;;4391504;32;20482;-66
2022/07/30 02:18:57;;;;;;;10.85;8.15;;;;;;;;;;4366372;32;20168;-65
2022/07/30 02:21:25;;;;;;;11.98;8.50;;;;;;;;;;4378924;32;20082;-65
2022/07/30 02:23:52;;;;;;;12.80;8.48;;;;;;;;;;4391717;32;20073;-65
2022/07/30 02:26:21;;;;;;;15.45;8.93;;;;;;;;;;4390934;32;20089;-65
2022/07/30 02:28:51;;;;;;;12.40;9.10;;;;;;;;;;4391270;32;20160;-66
2022/07/30 02:31:21;;;;;;;12.20;8.90;;;;;;;;;;4390847;32;20134;-65
2022/07/30 02:33:49;;;;;;;12.07;8.30;;;;;;;;;;4391861;32;20097;-65
2022/07/30 02:36:18;;;;;;;11.07;8.88;;;;;;;;;;4391012;32;20104;-66
2022/07/30 02:38:45;;;;;;;11.65;7.78;;;;;;;;;;4390709;32;20081;-65
2022/07/30 02:41:13;;;;;;;12.75;8.75;;;;;;;;;;4391168;32;20165;-65
2022/07/30 02:43:40;;;;;;;13.07;8.60;;;;;;;;;;4390889;32;20453;-65
2022/07/30 02:46:09;;;;;;;12.43;8.27;;;;;;;;;;4392396;32;20500;-65
2022/07/30 02:48:36;;;;;;;13.68;8.95;;;;;;;;;;4391251;32;20099;-65
2022/07/30 02:51:04;;;;;;;12.48;8.45;;;;;;;;;;4390314;32;20089;-65
2022/07/30 02:53:31;;;;;;;11.73;8.52;;;;;;;;;;4390327;32;20093;-65
2022/07/30 02:56:00;;;;;;;16.35;9.05;;;;;;;;;;4378479;32;20104;-67
2022/07/30 02:58:28;;;;;;;16.00;9.38;;;;;;;;;;4390761;32;20101;-65
2022/07/30 03:00:55;;;;;;;12.00;8.95;;;;;;;;;;4390696;32;20096;-65
2022/07/30 03:03:27;;;;;;;15.07;9.52;;;;;;;;;;4390685;32;20159;-65
2022/07/30 03:05:55;;;;;;;12.55;8.45;;;;;;;;;;4391062;32;20086;-65
2022/07/30 03:08:22;;;;;;;10.60;7.95;;;;;;;;;;4390229;32;20526;-65
2022/07/30 03:10:49;;;;;;;10.93;7.87;;;;;;;;;;4378050;32;20081;-66
2022/07/30 03:13:17;;;;;;;14.38;8.55;;;;;;;;;;4377973;32;20070;-65
2022/07/30 03:15:47;;;;;;;12.93;9.23;;;;;;;;;;4390614;32;20088;-65
2022/07/30 03:18:16;;;;;;;12.85;8.25;;;;;;;;;;4377773;32;20078;-65
2022/07/30 03:20:54;;;;;;;12.70;8.48;;;;;;;;;;4390718;32;20077;-65
2022/07/30 03:23:30;;;;;;;10.57;8.23;;;;;;;;;;4390631;32;20157;-65
2022/07/30 03:26:00;;;;;;;12.23;8.52;;;;;;;;;;4389978;32;20071;-65
2022/07/30 03:28:29;;;;;;;12.57;8.77;;;;;;;;;;4390548;32;20081;-65
2022/07/30 03:30:56;;;;;;;15.70;8.50;;;;;;;;;;4390081;32;20082;-65
2022/07/30 03:33:23;;;;;;;14.23;8.90;;;;;;;;;;4377774;32;20184;-65
2022/07/30 03:35:50;;;;;;;11.45;8.27;;;;;;;;;;4389949;32;20531;-65
2022/07/30 03:38:18;;;;;;;12.07;8.43;;;;;;;;;;4390220;32;20096;-66
2022/07/30 03:40:45;;;;;;;13.13;8.43;;;;;;;;;;4390332;32;20153;-65
2022/07/30 03:43:12;;;;;;;12.57;8.98;;;;;;;;;;4391830;32;20499;-65
2022/07/30 03:45:41;;;;;;;13.60;8.55;;;;;;;;;;4377294;32;20088;-66
2022/07/30 03:48:08;;;;;;;12.23;8.45;;;;;;;;;;4390173;32;20093;-65
2022/07/30 03:50:36;;;;;;;12.90;8.57;;;;;;;;;;4390311;32;20073;-66
2022/07/30 03:53:04;;;;;;;11.52;8.65;;;;;;;;;;4389699;32;20074;-66
2022/07/30 03:55:32;;;;;;;12.18;7.78;;;;;;;;;;4390118;32;20061;-66
2022/07/30 03:58:00;;;;;;;11.73;8.40;;;;;;;;;;4390308;32;20085;-66
2022/07/30 04:00:27;;;;;;;10.27;7.80;;;;;;;;;;4390375;32;20525;-65
2022/07/30 04:02:54;;;;;;;10.90;7.95;;;;;;;;;;4389929;32;20532;-65
2022/07/30 04:05:21;;;;;;;10.05;7.35;;;;;;;;;;4390293;32;20152;-65
2022/07/30 04:07:48;;;;;;;8.10;6.70;;;;;;;;;;4390020;32;20077;-65
2022/07/30 04:10:15;;;;;;;9.80;6.87;;;;;;;;;;4389782;32;20470;-65
2022/07/30 04:12:42;;;;;;;10.23;7.20;;;;;;;;;;4391058;32;20085;-66
2022/07/30 04:15:10;;;;;;;14.60;7.60;;;;;;;;;;4391338;32;20109;-65
2022/07/30 04:17:43;;;;;;;9.15;7.05;;;;;;;;;;4390028;32;20085;-65
2022/07/30 04:20:18;;;;;;;10.88;7.53;;;;;;;;;;4391688;32;20512;-66
2022/07/30 04:22:45;;;;;;;10.40;6.87;;;;;;;;;;4390337;32;20069;-66
2022/07/30 04:25:13;;;;;;;16.75;7.62;;;;;;;;;;4390812;32;20078;-66
2022/07/30 04:27:40;;;;;;;9.85;7.00;;;;;;;;;;4389667;32;20100;-65
2022/07/30 04:30:07;;;;;;;8.63;6.60;;;;;;;;;;4391260;32;20089;-66
2022/07/30 04:32:36;;;;;;;10.05;7.05;;;;;;;;;;4390872;32;20070;-66
2022/07/30 04:35:03;;;;;;;12.23;7.28;;;;;;;;;;4390365;32;20082;-65
2022/07/30 04:37:29;;;;;;;10.38;7.15;;;;;;;;;;4389555;32;20108;-66
2022/07/30 04:39:56;;;;;;;10.95;7.28;;;;;;;;;;4391281;32;20190;-66
2022/07/30 04:42:25;;;;;;;10.90;7.35;;;;;;;;;;4391328;32;20145;-66
2022/07/30 04:44:52;;;;;;;9.10;7.12;;;;;;;;;;4391058;32;20146;-65
2022/07/30 04:47:19;;;;;;;12.75;7.75;;;;;;;;;;4389231;32;20529;-65
2022/07/30 04:49:46;;;;;;;10.02;6.97;;;;;;;;;;4389749;32;20074;-65
2022/07/30 04:52:14;;;;;;;12.43;7.10;;;;;;;;;;4389381;32;20100;-67
2022/07/30 04:55:03;;;;;;;9.55;7.15;;;;;;;;;;4389790;32;20178;-66
2022/07/30 04:57:31;;;;;;;13.43;7.00;;;;;;;;;;4390137;32;20186;-65
2022/07/30 04:59:58;;;;;;;11.75;7.57;;;;;;;;;;4391886;32;20141;-66
2022/07/30 05:02:27;;;;;;;10.27;7.70;;;;;;;;;;4379492;32;20158;-66
2022/07/30 05:04:54;;;;;;;9.70;7.50;;;;;;;;;;4391914;32;20073;-66
2022/07/30 05:07:21;;;;;;;9.38;7.50;;;;;;;;;;4393262;32;20066;-66
2022/07/30 05:09:48;;;;;;;11.48;7.45;;;;;;;;;;4391991;32;20084;-66
2022/07/30 05:12:15;;;;;;;12.43;7.78;;;;;;;;;;4392510;32;20603;-66
2022/07/30 05:14:41;;;;;;;10.50;7.65;;;;;;;;;;4392223;32;20153;-66
2022/07/30 05:17:08;;;;;;;12.18;8.07;;;;;;;;;;4393602;32;20164;-66
2022/07/30 05:19:35;;;;;;;9.55;7.10;;;;;;;;;;4391709;32;20080;-66
2022/07/30 05:22:02;;;;;;;11.23;7.55;;;;;;;;;;4391965;32;20098;-66
2022/07/30 05:24:28;;;;;;;12.07;7.43;;;;;;;;;;4391986;32;20455;-66
2022/07/30 05:26:55;;;;;;;13.68;8.90;;;;;;;;;;4392065;32;20156;-65
2022/07/30 05:29:22;;;;;;;10.75;7.72;;;;;;;;;;4392080;32;20101;-66
2022/07/30 05:31:49;;;;;;;11.45;8.13;;;;;;;;;;4392850;32;20153;-66
2022/07/30 05:34:16;;;;;;;11.90;7.28;;;;;;;;;;4391849;32;20078;-65
2022/07/30 05:36:43;;;;;;;11.85;7.93;;;;;;;;;;4391435;32;20088;-66
2022/07/30 05:39:10;;;;;;;10.38;7.15;;;;;;;;;;4391725;32;20483;-65
2022/07/30 05:41:37;;;;;;;10.30;7.30;;;;;;;;;;4379421;32;20590;-65
2022/07/30 05:44:03;;;;;;;10.93;7.35;;;;;;;;;;4393095;32;20138;-66
2022/07/30 05:46:30;;;;;;;12.50;7.18;;;;;;;;;;4392716;32;20096;-65
2022/07/30 05:48:57;;;;;;;9.57;7.62;;;;;;;;;;4393158;32;20156;-66
2022/07/30 05:51:23;;;;;;;13.02;8.02;;;;;;;;;;4393196;32;20614;-66
2022/07/30 05:53:50;;;;;;;10.75;7.57;;;;;;;;;;4393139;32;20166;-66
2022/07/30 05:56:17;;;;;;;12.48;7.90;;;;;;;;;;4391735;32;20078;-66
2022/07/30 05:58:44;;;;;;;10.27;7.10;;;;;;;;;;4392877;32;20085;-67
2022/07/30 06:01:10;;;;;;;12.50;8.10;;;;;;;;;;4393062;32;20105;-66
2022/07/30 06:03:37;;;;;;;10.77;7.35;;;;;;;;;;4391592;32;20174;-66
2022/07/30 06:06:04;;;;;;;12.13;8.25;;;;;;;;;;4392379;32;20597;-65
2022/07/30 06:08:31;;;;;;;10.00;7.72;;;;;;;;;;4391305;32;20169;-65
2022/07/30 06:10:58;;;;;;;12.07;8.07;;;;;;;;;;4391361;32;20085;-66
2022/07/30 06:13:25;;;;;;;12.88;8.35;;;;;;;;;;4392254;32;20092;-66
2022/07/30 06:15:51;;;;;;;10.48;7.75;;;;;;;;;;4393352;32;20154;-65
2022/07/30 06:18:18;;;;;;;10.95;7.18;;;;;;;;;;4392776;32;20164;-66
2022/07/30 06:20:45;;;;;;;12.20;7.62;;;;;;;;;;4391301;32;20124;-66
2022/07/30 06:23:12;;;;;;;11.75;7.72;;;;;;;;;;4392606;32;20512;-66
2022/07/30 06:25:38;;;;;;;12.00;8.55;;;;;;;;;;4391148;32;20162;-66
2022/07/30 06:28:05;;;;;;;13.98;7.87;;;;;;;;;;4392488;32;20594;-66
2022/07/30 06:30:32;;;;;;;11.50;8.15;;;;;;;;;;4378204;32;20595;-66
2022/07/30 06:32:58;;;;;;;11.70;8.07;;;;;;;;;;4392663;32;20085;-65
2022/07/30 06:35:25;;;;;;;14.38;8.07;;;;;;;;;;4392724;32;20077;-66
2022/07/30 06:37:51;;;;;;;11.88;7.78;;;;;;;;;;4390940;32;20089;-66
2022/07/30 06:40:18;;;;;;;13.98;8.70;;;;;;;;;;4392357;32;20123;-64
2022/07/30 06:42:45;;;;;;;11.45;8.35;;;;;;;;;;4392189;32;20066;-66
2022/07/30 06:45:11;;;;;;;15.90;8.07;;;;;;;;;;4392099;32;20089;-66
2022/07/30 06:47:38;;;;;;;13.70;8.38;;;;;;;;;;4391247;32;20085;-66
2022/07/30 06:50:05;;;;;;;12.30;8.00;;;;;;;;;;4390715;32;20512;-66
2022/07/30 06:52:32;;;;;;;12.73;9.02;;;;;;;;;;4390707;32;20150;-66
2022/07/30 06:54:59;;;;;;;14.68;8.82;;;;;;;;;;4392366;32;20074;-66
2022/07/30 06:57:25;;;;;;;14.00;8.60;;;;;;;;;;4392225;32;20630;-66
2022/07/30 06:59:52;;;;;;;14.13;7.97;;;;;;;;;;4378098;32;20085;-66
2022/07/30 07:02:18;;;;;;;13.80;8.90;;;;;;;;;;4365262;32;20516;-66
2022/07/30 07:04:45;;;;;;;11.30;8.27;;;;;;;;;;4392133;32;20194;-66
2022/07/30 07:07:12;;;;;;;11.82;7.82;;;;;;;;;;4390166;32;20152;-66
2022/07/30 07:09:38;;;;;;;11.63;8.20;;;;;;;;;;4391629;32;20078;-66
2022/07/30 07:12:05;;;;;;;14.05;8.18;;;;;;;;;;4390204;32;20086;-66
2022/07/30 07:14:32;;;;;;;11.43;8.32;;;;;;;;;;4390574;32;20081;-66
2022/07/30 07:16:59;;;;;;;13.35;8.38;;;;;;;;;;4390377;32;20078;-66
2022/07/30 07:19:25;;;;;;;11.45;8.48;;;;;;;;;;4391868;32;20510;-66
2022/07/30 07:21:52;;;;;;;11.65;8.27;;;;;;;;;;4377892;32;20160;-65
2022/07/30 07:24:19;;;;;;;12.57;8.70;;;;;;;;;;4389489;32;20081;-65
2022/07/30 07:26:45;;;;;;;11.35;8.27;;;;;;;;;;4391616;32;20152;-66
2022/07/30 07:29:12;;;;;;;16.10;8.90;;;;;;;;;;4391553;32;20080;-65
2022/07/30 07:31:39;;;;;;;15.32;8.95;;;;;;;;;;4390442;32;20445;-65
2022/07/30 07:34:06;;;;;;;12.05;8.20;;;;;;;;;;4390274;32;20146;-65
2022/07/30 07:36:34;;;;;;;15.00;8.68;;;;;;;;;;4390124;32;20084;-65
2022/07/30 07:39:00;;;;;;;12.40;7.97;;;;;;;;;;4391084;32;20090;-66
2022/07/30 07:41:27;;;;;;;12.98;8.55;;;;;;;;;;4377238;32;20503;-66
2022/07/30 07:43:54;;;;;;;13.55;8.32;;;;;;;;;;4390061;32;20136;-65
2022/07/30 07:46:21;;;;;;;12.15;8.20;;;;;;;;;;4390378;32;20161;-65
2022/07/30 07:48:47;;;;;;;13.90;8.40;;;;;;;;;;4390021;32;20090;-64
2022/07/30 07:51:14;;;;;;;11.48;7.78;;;;;;;;;;4390017;32;20090;-64
2022/07/30 07:53:40;;;;;;;12.75;8.32;;;;;;;;;;4391174;32;20552;-66
2022/07/30 07:56:07;;;;;;;13.30;8.15;;;;;;;;;;4390652;32;20526;-66
2022/07/30 07:58:34;;;;;;;11.23;7.93;;;;;;;;;;4390011;32;20086;-66
2022/07/30 08:01:01;;;;;;;13.10;8.20;;;;;;;;;;4377403;32;20109;-65
2022/07/30 08:03:27;;;;;;;11.40;8.35;;;;;;;;;;4389953;32;20077;-65
2022/07/30 08:05:54;;;;;;;11.60;7.87;;;;;;;;;;4389969;32;20073;-65
2022/07/30 08:08:20;;;;;;;10.82;7.80;;;;;;;;;;4391429;32;20073;-66
2022/07/30 08:10:47;;;;;;;11.80;7.90;;;;;;;;;;4377288;32;20115;-66
2022/07/30 08:13:14;;;;;;;13.38;8.05;;;;;;;;;;4377482;32;20082;-65
2022/07/30 08:15:41;;;;;;;11.35;8.18;;;;;;;;;;4390103;32;20141;-64
2022/07/30 08:18:09;;;;;;;11.27;7.25;;;;;;;;;;4377162;32;20506;-66
2022/07/30 08:20:38;;;;;;;14.38;10.20;;;;;;;;;;4390304;32;20086;-65
2022/07/30 08:23:05;;;;;;;14.48;8.00;;;;;;;;;;4377711;32;20156;-65
2022/07/30 08:25:32;;;;;;;13.27;7.75;;;;;;;;;;4389627;32;20174;-66
2022/07/30 08:28:01;;;;;;;12.65;8.07;;;;;;;;;;4376959;32;20153;-65
2022/07/30 08:30:29;;;;;;;10.65;7.78;;;;;;;;;;4391028;32;20074;-64
2022/07/30 08:32:55;;;;;;;11.32;7.55;;;;;;;;;;4389974;32;20101;-65
2022/07/30 08:35:22;;;;;;;10.88;7.32;;;;;;;;;;4390871;32;20096;-65
2022/07/30 08:37:49;;;;;;;10.60;6.72;;;;;;;;;;4380060;32;20080;-65
2022/07/30 08:40:19;;;;;;;11.50;7.50;;;;;;;;;;4380172;32;20093;-65
2022/07/30 08:42:46;;;;;;;10.90;7.20;;;;;;;;;;4393257;32;20081;-65
2022/07/30 08:45:13;;;;;;;11.27;7.10;;;;;;;;;;4394001;32;20077;-66
2022/07/30 08:47:41;;;;;;;11.50;7.37;;;;;;;;;;4392755;32;20096;-64
2022/07/30 08:50:08;;;;;;;11.10;7.28;;;;;;;;;;4394601;32;20070;-65
2022/07/30 08:52:35;;;;;;;12.18;7.15;;;;;;;;;;4393778;32;20089;-63
2022/07/30 08:55:04;;;;;;;9.75;7.07;;;;;;;;;;4382175;32;20069;-65
2022/07/30 08:57:33;;;;;;;12.02;8.07;;;;;;;;;;4394605;32;20149;-65
2022/07/30 09:00:00;;;;;;;9.82;7.05;;;;;;;;;;4394370;32;20153;-65
2022/07/30 09:02:29;;;;;;;9.10;6.95;;;;;;;;;;4393244;32;20142;-65
2022/07/30 09:04:55;;;;;;;9.98;7.22;;;;;;;;;;4380928;32;20092;-66
2022/07/30 09:07:22;;;;;;;12.15;7.82;;;;;;;;;;4394021;32;20062;-65
2022/07/30 09:09:49;;;;;;;10.18;6.50;;;;;;;;;;4393734;32;20108;-64
2022/07/30 09:12:34;;;;;;;9.38;6.75;;;;;;;;;;4392451;32;20069;-65
2022/07/30 09:15:14;;;;;;;9.18;6.47;;;;;;;;;;4393601;32;20089;-66
2022/07/30 09:18:00;;;;;;;12.85;7.30;;;;;;;;;;4380166;32;20098;-65
2022/07/30 09:20:29;;;;;;;13.77;7.12;;;;;;;;;;4379618;32;20516;-66
2022/07/30 09:23:03;;;;;;;10.70;6.65;;;;;;;;;;4392075;32;20463;-67
2022/07/30 09:25:41;;;;;;;8.80;6.47;;;;;;;;;;4393253;32;20077;-65
2022/07/30 09:28:09;;;;;;;10.40;6.72;;;;;;;;;;4391715;32;20153;-65
2022/07/30 09:30:50;;;;;;;9.35;6.45;;;;;;;;;;4392018;32;20101;-66
2022/07/30 09:33:41;;;;;;;8.27;6.60;;;;;;;;;;4379788;32;20096;-65
2022/07/30 09:36:10;;;;;;;10.10;7.12;;;;;;;;;;4379360;32;20081;-65
2022/07/30 09:38:50;;;;;;;11.65;7.10;;;;;;;;;;4379707;32;20090;-66
2022/07/30 09:41:21;;;;;;;10.32;7.15;;;;;;;;;;4391930;32;20166;-65
2022/07/30 09:43:49;;;;;;;10.32;7.47;;;;;;;;;;4391881;32;20080;-66
2022/07/30 09:46:16;;;;;;;9.40;6.18;;;;;;;;;;4392334;32;20107;-65
2022/07/30 09:48:45;;;;;;;9.77;6.80;;;;;;;;;;4378998;32;20097;-65
2022/07/30 09:51:12;;;;;;;9.15;6.25;;;;;;;;;;4379279;32;20069;-65
2022/07/30 09:53:58;;;;;;;10.55;6.22;;;;;;;;;;4378813;32;20092;-65
2022/07/30 09:56:29;;;;;;;9.63;6.50;;;;;;;;;;4378974;32;20080;-65
2022/07/30 09:58:56;;;;;;;11.07;6.97;;;;;;;;;;4392174;32;20070;-65
2022/07/30 10:01:22;;;;;;;11.90;7.20;;;;;;;;;;4392682;32;20460;-65
2022/07/30 10:03:49;;;;;;;12.48;8.27;;;;;;;;;;4392742;32;20093;-66
2022/07/30 10:06:16;;;;;;;11.82;7.12;;;;;;;;;;4392447;32;20084;-65
2022/07/30 10:08:45;;;;;;;8.68;7.22;;;;;;;;;;4391452;32;20058;-65
2022/07/30 10:11:13;;;;;;;9.35;7.55;;;;;;;;;;4392027;32;20077;-66
2022/07/30 10:13:41;;;;;;;11.77;7.75;;;;;;;;;;4391191;32;20527;-65
2022/07/30 10:16:08;;;;;;;11.05;8.00;;;;;;;;;;4391265;32;20082;-65
2022/07/30 10:18:35;;;;;;;12.35;7.80;;;;;;;;;;4391364;32;20086;-65
2022/07/30 10:21:03;;;;;;;12.65;8.02;;;;;;;;;;4391144;32;20073;-65
2022/07/30 10:23:31;;;;;;;11.43;8.00;;;;;;;;;;4392579;32;20157;-65
2022/07/30 10:25:59;;;;;;;13.18;8.50;;;;;;;;;;4378625;32;20150;-66
2022/07/30 10:28:27;;;;;;;11.23;8.13;;;;;;;;;;4391384;32;20066;-65
2022/07/30 10:30:56;;;;;;;13.20;9.02;;;;;;;;;;4390761;32;20092;-66
2022/07/30 10:33:25;;;;;;;12.80;8.50;;;;;;;;;;4390849;32;20066;-65
2022/07/30 10:35:51;;;;;;;12.27;7.85;;;;;;;;;;4390973;32;20167;-65
2022/07/30 10:38:20;;;;;;;11.02;8.32;;;;;;;;;;4390926;32;20149;-65
2022/07/30 10:40:57;;;;;;;11.00;8.13;;;;;;;;;;4390958;32;20116;-66
2022/07/30 10:43:26;;;;;;;10.18;7.82;;;;;;;;;;4391537;32;20062;-66
2022/07/30 10:46:15;;;;;;;11.00;7.78;;;;;;;;;;4392042;32;20520;-65
2022/07/30 10:48:42;;;;;;;13.23;7.93;;;;;;;;;;4390668;32;20590;-65
2022/07/30 10:51:08;;;;;;;10.30;7.78;;;;;;;;;;4392582;32;20080;-66
2022/07/30 10:53:40;;;;;;;12.93;7.45;;;;;;;;;;4391781;32;20457;-65
2022/07/30 10:56:21;;;;;;;11.98;7.65;;;;;;;;;;4390562;32;20076;-65
2022/07/30 10:59:09;;;;;;;13.48;7.60;;;;;;;;;;4391092;32;20161;-66
2022/07/30 11:01:48;;;;;;;11.25;8.30;;;;;;;;;;4378134;32;20547;-65
2022/07/30 11:04:19;;;;;;;12.18;7.50;;;;;;;;;;4390753;32;20074;-65
2022/07/30 11:06:46;;;;;;;12.35;8.50;;;;;;;;;;4390392;32;20086;-65
2022/07/30 11:09:38;;;;;;;12.55;8.20;;;;;;;;;;4390299;32;20201;-67
2022/07/30 11:12:05;;;;;;;13.32;8.60;;;;;;;;;;4390535;32;20075;-66
2022/07/30 11:14:47;;;;;;;12.30;8.02;;;;;;;;;;4391677;32;20074;-65
2022/07/30 11:17:18;;;;;;;11.57;7.87;;;;;;;;;;4390453;32;20145;-65
2022/07/30 11:20:06;;;;;;;11.73;8.95;;;;;;;;;;4390282;32;20153;-65
2022/07/30 11:22:48;;;;;;;11.90;9.00;;;;;;;;;;4391336;32;20072;-65
2022/07/30 11:25:27;;;;;;;12.32;9.45;;;;;;;;;;4378677;32;20149;-65
2022/07/30 11:27:53;;;;;;;13.65;8.82;;;;;;;;;;4391791;32;20491;-66
2022/07/30 11:30:33;;;;;;;12.95;9.23;;;;;;;;;;4391753;32;20586;-66
2022/07/30 11:33:08;;;;;;;15.40;9.65;;;;;;;;;;4391888;32;20515;-65
2022/07/30 11:35:35;;;;;;;13.57;8.70;;;;;;;;;;4391467;32;20508;-65
2022/07/30 11:38:19;;;;;;;13.23;8.05;;;;;;;;;;4391564;32;20097;-67
2022/07/30 11:40:48;;;;;;;12.48;8.93;;;;;;;;;;4378515;32;20523;-66
2022/07/30 11:43:23;;;;;;;13.85;9.82;;;;;;;;;;4392025;32;20158;-66
2022/07/30 11:46:09;;;;;;;13.27;9.97;;;;;;;;;;4378133;32;20189;-66
2022/07/30 11:48:38;;;;;;;13.32;9.23;;;;;;;;;;4391476;32;20161;-66
2022/07/30 11:51:05;;;;;;;11.95;8.93;;;;;;;;;;4389643;32;20081;-65
2022/07/30 11:53:32;;;;;;;12.50;10.00;;;;;;;;;;4377771;32;20097;-65
2022/07/30 11:56:00;;;;;;;14.43;10.27;;;;;;;;;;4391973;32;20503;-65
2022/07/30 11:58:30;;;;;;;13.75;9.85;;;;;;;;;;4390388;32;20169;-65
2022/07/30 12:01:05;;;;;;;13.20;9.77;;;;;;;;;;4389806;32;20172;-65
2022/07/30 12:03:32;;;;;;;11.77;8.88;;;;;;;;;;4389773;32;20093;-65
2022/07/30 12:06:06;;;;;;;12.52;9.13;;;;;;;;;;4390036;32;20141;-65
2022/07/30 12:08:46;;;;;;;13.10;9.20;;;;;;;;;;4391085;32;20071;-65
2022/07/30 12:11:12;;;;;;;11.70;9.27;;;;;;;;;;4392805;32;20096;-65
2022/07/30 12:13:42;;;;;;;10.95;8.45;;;;;;;;;;4380828;32;20074;-65
2022/07/30 12:16:17;;;;;;;12.07;9.18;;;;;;;;;;4380568;32;20077;-65
2022/07/30 12:18:44;;;;;;;11.98;8.90;;;;;;;;;;4393332;32;20534;-66
2022/07/30 12:21:12;;;;;;;14.10;8.63;;;;;;;;;;4392811;32;20085;-66
2022/07/30 12:23:42;;;;;;;10.43;8.38;;;;;;;;;;4394383;32;20081;-66
2022/07/30 12:26:21;;;;;;;12.00;8.50;;;;;;;;;;4380314;32;20519;-64
2022/07/30 12:28:48;;;;;;;11.80;9.48;;;;;;;;;;4393833;32;20086;-67
2022/07/30 12:31:15;;;;;;;13.48;9.10;;;;;;;;;;4392902;32;20177;-66
2022/07/30 12:33:42;;;;;;;13.77;9.00;;;;;;;;;;4392816;32;20104;-66
2022/07/30 12:36:09;;;;;;;13.13;8.90;;;;;;;;;;4394355;32;20161;-66
2022/07/30 12:38:51;;;;;;;11.20;8.70;;;;;;;;;;4392721;32;20085;-66
2022/07/30 12:41:18;;;;;;;10.73;8.40;;;;;;;;;;4394559;32;20054;-66
2022/07/30 12:43:55;;;;;;;12.18;8.98;;;;;;;;;;4380545;32;20077;-66
2022/07/30 12:46:26;;;;;;;10.10;7.93;;;;;;;;;;4380439;32;20152;-66
2022/07/30 12:49:03;;;;;;;11.10;8.48;;;;;;;;;;4393170;32;20074;-65
2022/07/30 12:51:32;;;;;;;12.20;8.88;;;;;;;;;;4392253;32;20182;-65
2022/07/30 12:54:00;;;;;;;16.58;9.20;;;;;;;;;;4367344;32;20094;-66
2022/07/30 12:56:29;;;;;;;14.18;9.23;;;;;;;;;;4394014;32;20168;-65
2022/07/30 12:59:21;;;;;;;14.27;9.63;;;;;;;;;;4392365;32;20163;-66
2022/07/30 13:01:48;;;;;;;12.37;9.50;;;;;;;;;;4392589;32;20081;-66
2022/07/30 13:04:15;;;;;;;13.10;9.80;;;;;;;;;;4392695;32;20074;-66
2022/07/30 13:06:42;;;;;;;10.80;9.15;;;;;;;;;;4392491;32;20081;-66
2022/07/30 13:09:29;;;;;;;12.20;9.63;;;;;;;;;;4392959;32;20066;-66
2022/07/30 13:16:03;;;;;;;13.23;10.00;;;;;;;;;;4394174;32;20084;-66
2022/07/30 13:30:12;;;;;;;10.90;8.48;;;;;;;;;;4357850;32;20076;-65
2022/07/30 13:57:35;;;;;;;13.93;9.48;;;;;;;;;;4391625;32;20085;-66
2022/07/30 14:06:11;;;;;;;11.82;9.48;;;;;;;;;;4392930;32;20078;-66
2022/07/30 14:30:11;;;;;;;13.10;9.63;;;;;;;;;;4392736;32;20236;-65
2022/07/30 14:39:29;;;;;;;13.88;9.70;;;;;;;;;;4374928;32;20101;-65
2022/07/30 14:41:56;;;;;;;10.80;8.90;;;;;;;;;;4374978;32;20524;-65
2022/07/30 15:02:25;;;;;;;13.48;10.43;;;;;;;;;;4374853;32;20081;-64
2022/07/30 15:05:31;;;;;;;12.60;9.98;;;;;;;;;;4374723;32;20471;-65
2022/07/30 15:15:40;;;;;;;16.45;10.52;;;;;;;;;;4391980;32;20112;-65
2022/07/30 15:18:44;;;;;;;13.87;10.40;;;;;;;;;;4390744;32;20101;-65
2022/07/30 15:32:36;;;;;;;15.05;10.32;;;;;;;;;;4391722;32;20070;-65
2022/07/30 15:53:19;;;;;;;15.10;10.57;;;;;;;;;;4391048;32;20150;-65
2022/07/30 15:56:05;;;;;;;16.75;10.95;;;;;;;;;;4373895;32;20170;-65
2022/07/30 16:31:53;;;;;;;22.48;14.43;;;;;;;;;;4391620;32;20609;-65
2022/07/30 16:34:39;;;;;;;21.90;13.90;;;;;;;;;;4389782;32;20096;-66
2022/07/30 16:51:54;;;;;;;20.92;12.43;;;;;;;;;;4391121;32;20263;-64
2022/07/30 16:58:04;;;;;;;18.00;12.95;;;;;;;;;;4393954;32;20176;-65
2022/07/30 17:00:50;;;;;;;17.67;11.95;;;;;;;;;;4392703;32;20120;-65
2022/07/30 17:06:52;;;;;;;18.67;12.53;;;;;;;;;;4394414;32;20166;-65
2022/07/30 17:57:39;;;;;;;12.63;9.07;;;;;;;;;;4393389;32;20491;-64
2022/07/30 18:17:14;;;;;;;14.95;9.75;;;;;;;;;;4393015;32;20588;-65
2022/07/30 18:56:57;;;;;;;15.63;11.15;;;;;;;;;;4392228;32;20088;-65
2022/07/30 18:59:44;;;;;;;13.95;10.27;;;;;;;;;;4391125;32;20077;-65
2022/07/30 19:40:22;;;;;;;11.27;8.40;;;;;;;;;;4391373;32;20129;-65
2022/07/30 19:46:51;;;;;;;10.95;9.10;;;;;;;;;;4392122;32;20249;-65
2022/07/30 20:07:42;;;;;;;10.82;8.52;;;;;;;;;;4391250;32;20088;-65
2022/07/30 20:30:31;;;;;;;12.82;8.63;;;;;;;;;;4343771;32;20205;-65
2022/07/30 21:09:19;;;;;;;13.80;8.95;;;;;;;;;;4393756;32;20088;-65
2022/07/30 21:36:56;;;;;;;14.50;10.02;;;;;;;;;;4391444;32;20146;-66
2022/07/30 21:46:46;;;;;;;15.57;10.30;;;;;;;;;;4393141;32;20456;-64
2022/07/30 21:49:32;;;;;;;18.17;10.77;;;;;;;;;;4391831;32;20057;-65
2022/07/30 21:52:18;;;;;;;12.68;10.10;;;;;;;;;;4392515;32;20149;-64
2022/07/30 21:55:27;;;;;;;14.32;10.52;;;;;;;;;;4392262;32;20076;-65
2022/07/30 22:20:30;;;;;;;15.32;10.57;;;;;;;;;;4392923;32;20077;-65
